Leoberto Leal, Brazil
Current Conditions -  °F | °C
As of 3:00 AM on Sunday 26 Oct 2014 (Local Time) from SBFL Reporting Station
Broken Clouds Broken Clouds  
Wind Chill: 68°   Ceiling: 4000
Heat Index: 68°   Visibility: 6mi
Dew Point: 66°   Wind: 0mph
Humidity: 94%   Direction: NA
Pressure: 29.94"   Gusts: NA
Location:  27.51°S, 49.29°W
Report Text: SBFL 260500Z 00000KT 9999 FEW010 BKN040 20/19 Q1014
Loading
Personal Weather Stations






























Interactive Weather Map
Tropical Storm Tracking
New forecast layout! Learn more

10-Day Weather Forecast

Advertisements
Track Severe Weather on mobile